Time;durP1;ratioP1;P1;durP2;ratioP2;P2;SDS_P1;SDS_P2;PMS_P1;PMS_P2;Temp;Humidity;BMP_temperature;BMP_pressure;BME280_temperature;BME280_humidity;BME280_pressure;Samples;Min_cycle;Max_cycle;Signal;HPM_P1;HPM_P2
2022/03/07 00:01:55;;;;;;;12.77;8.23;;;;;;;;;;5071521;28;20035;-58
2022/03/07 00:04:22;;;;;;;11.93;8.32;;;;;;;;;;5071144;28;20119;-58
2022/03/07 00:06:48;;;;;;;9.75;7.32;;;;;;;;;;5070456;28;20091;-58
2022/03/07 00:09:14;;;;;;;13.48;8.00;;;;;;;;;;5070646;28;20119;-58
2022/03/07 00:11:41;;;;;;;13.13;8.18;;;;;;;;;;5058541;28;20514;-58
2022/03/07 00:14:07;;;;;;;15.13;8.00;;;;;;;;;;5069175;28;20047;-58
2022/03/07 00:16:33;;;;;;;11.68;7.78;;;;;;;;;;5060112;28;20044;-58
2022/03/07 00:18:59;;;;;;;14.23;8.80;;;;;;;;;;5070198;28;20118;-58
2022/03/07 00:21:26;;;;;;;9.70;7.35;;;;;;;;;;5071229;28;20033;-58
2022/03/07 00:23:52;;;;;;;12.27;7.45;;;;;;;;;;5070785;28;20538;-58
2022/03/07 00:26:18;;;;;;;15.38;8.45;;;;;;;;;;5069939;28;20041;-58
2022/03/07 00:28:45;;;;;;;11.77;7.82;;;;;;;;;;5071023;28;20166;-58
2022/03/07 00:31:11;;;;;;;11.02;7.85;;;;;;;;;;5071235;28;20122;-58
2022/03/07 00:33:37;;;;;;;11.77;8.25;;;;;;;;;;5069432;28;20125;-58
2022/03/07 00:36:04;;;;;;;12.20;7.53;;;;;;;;;;5071102;28;20513;-58
2022/03/07 00:38:30;;;;;;;10.10;7.60;;;;;;;;;;5072046;28;20128;-58
2022/03/07 00:40:56;;;;;;;11.43;8.05;;;;;;;;;;5071068;28;20037;-58
2022/03/07 00:43:22;;;;;;;11.43;7.38;;;;;;;;;;5069959;28;20470;-58
2022/03/07 00:45:48;;;;;;;10.27;7.65;;;;;;;;;;5069989;28;20039;-58
2022/03/07 00:48:15;;;;;;;10.93;8.10;;;;;;;;;;5071172;28;20117;-58
2022/03/07 00:50:44;;;;;;;10.82;7.35;;;;;;;;;;5070509;28;20043;-58
2022/03/07 00:53:10;;;;;;;13.00;8.07;;;;;;;;;;5069015;28;20461;-57
2022/03/07 00:55:37;;;;;;;11.15;7.90;;;;;;;;;;5069978;28;20124;-58
2022/03/07 00:58:03;;;;;;;14.52;7.60;;;;;;;;;;5066437;28;20398;-57
2022/03/07 01:00:29;;;;;;;12.07;7.20;;;;;;;;;;5068454;28;20043;-58
2022/03/07 01:02:55;;;;;;;10.45;7.53;;;;;;;;;;5070409;28;20547;-58
2022/03/07 01:05:21;;;;;;;9.77;6.85;;;;;;;;;;5069651;28;20094;-58
2022/03/07 01:07:48;;;;;;;11.23;7.10;;;;;;;;;;5069997;28;20482;-58
2022/03/07 01:10:14;;;;;;;10.40;6.53;;;;;;;;;;5069778;28;20052;-58
2022/03/07 01:12:40;;;;;;;8.18;6.15;;;;;;;;;;5070324;28;20040;-58
2022/03/07 01:15:07;;;;;;;10.43;6.82;;;;;;;;;;5070486;28;20044;-58
2022/03/07 01:17:33;;;;;;;9.90;6.72;;;;;;;;;;5069528;28;20052;-58
2022/03/07 01:19:59;;;;;;;8.73;6.55;;;;;;;;;;5069755;28;20551;-58
2022/03/07 01:22:25;;;;;;;9.40;7.22;;;;;;;;;;5068725;28;20089;-58
2022/03/07 01:24:51;;;;;;;10.48;7.03;;;;;;;;;;5069969;28;20123;-58
2022/03/07 01:27:17;;;;;;;9.23;6.93;;;;;;;;;;5065763;28;20398;-58
2022/03/07 01:29:43;;;;;;;10.18;6.85;;;;;;;;;;5067083;28;20035;-58
2022/03/07 01:32:09;;;;;;;9.63;6.57;;;;;;;;;;5069596;28;20029;-58
2022/03/07 01:34:36;;;;;;;10.93;6.53;;;;;;;;;;5071904;28;20089;-58
2022/03/07 01:37:02;;;;;;;9.07;6.60;;;;;;;;;;5069171;28;20044;-57
2022/03/07 01:39:28;;;;;;;13.68;7.40;;;;;;;;;;5067481;28;20045;-58
2022/03/07 01:41:54;;;;;;;10.98;7.75;;;;;;;;;;5071079;28;20797;-58
2022/03/07 01:44:20;;;;;;;14.68;7.53;;;;;;;;;;5070991;28;20045;-58
2022/03/07 01:46:47;;;;;;;12.20;7.30;;;;;;;;;;5068610;28;20043;-58
2022/03/07 01:49:13;;;;;;;10.25;7.65;;;;;;;;;;5071760;28;20043;-57
2022/03/07 01:51:43;;;;;;;14.13;7.95;;;;;;;;;;5070045;28;20086;-58
2022/03/07 01:54:10;;;;;;;11.65;7.80;;;;;;;;;;5071778;28;20044;-58
2022/03/07 01:56:36;;;;;;;10.98;7.68;;;;;;;;;;5072378;28;20053;-58
2022/03/07 01:59:04;;;;;;;12.25;7.60;;;;;;;;;;5071888;28;20083;-58
2022/03/07 02:01:30;;;;;;;11.00;7.85;;;;;;;;;;5068868;28;20490;-58
2022/03/07 02:03:56;;;;;;;11.35;7.82;;;;;;;;;;5071639;28;20033;-58
2022/03/07 02:06:23;;;;;;;12.38;7.43;;;;;;;;;;5070310;28;21192;-58
2022/03/07 02:08:50;;;;;;;15.18;8.60;;;;;;;;;;5071540;28;20081;-58
2022/03/07 02:11:16;;;;;;;14.77;8.05;;;;;;;;;;5070572;28;20094;-58
2022/03/07 02:13:42;;;;;;;10.98;8.38;;;;;;;;;;5067521;28;20044;-58
2022/03/07 02:16:09;;;;;;;16.90;9.25;;;;;;;;;;5072877;28;20037;-58
2022/03/07 02:18:35;;;;;;;13.00;8.30;;;;;;;;;;5072801;28;20047;-58
2022/03/07 02:21:04;;;;;;;13.02;8.00;;;;;;;;;;5071308;28;20481;-58
2022/03/07 02:23:30;;;;;;;14.85;8.65;;;;;;;;;;5066186;28;20119;-58
2022/03/07 02:25:56;;;;;;;13.60;8.48;;;;;;;;;;5071619;28;20072;-58
2022/03/07 02:28:22;;;;;;;11.93;8.35;;;;;;;;;;5072886;28;20060;-57
2022/03/07 02:30:51;;;;;;;13.25;8.73;;;;;;;;;;5073655;28;20032;-58
2022/03/07 02:33:16;;;;;;;12.95;8.48;;;;;;;;;;5071731;28;20033;-58
2022/03/07 02:35:42;;;;;;;14.70;8.63;;;;;;;;;;5079502;28;20045;-58
2022/03/07 02:38:13;;;;;;;13.52;8.57;;;;;;;;;;5070059;28;20123;-58
2022/03/07 02:40:40;;;;;;;14.25;8.73;;;;;;;;;;5063985;28;20485;-58
2022/03/07 02:43:06;;;;;;;14.05;8.65;;;;;;;;;;5072553;28;20119;-58
2022/03/07 02:45:32;;;;;;;14.60;9.10;;;;;;;;;;5072014;28;20166;-58
2022/03/07 02:47:58;;;;;;;13.65;9.10;;;;;;;;;;5067609;28;20041;-57
2022/03/07 02:50:24;;;;;;;13.05;8.80;;;;;;;;;;5070414;28;20044;-58
2022/03/07 02:52:50;;;;;;;11.50;8.50;;;;;;;;;;5068298;28;20044;-57
2022/03/07 02:55:16;;;;;;;12.18;8.82;;;;;;;;;;5070262;28;20131;-58
2022/03/07 02:57:42;;;;;;;14.55;8.13;;;;;;;;;;5072246;28;20040;-58
2022/03/07 03:00:08;;;;;;;15.00;8.07;;;;;;;;;;5068042;28;20135;-57
2022/03/07 03:02:34;;;;;;;14.25;8.15;;;;;;;;;;5070001;28;20068;-57
2022/03/07 03:05:00;;;;;;;13.70;8.90;;;;;;;;;;5070150;28;20072;-58
2022/03/07 03:07:26;;;;;;;13.48;8.80;;;;;;;;;;5068267;28;20028;-57
2022/03/07 03:09:52;;;;;;;11.07;7.88;;;;;;;;;;5071133;28;20383;-58
2022/03/07 03:12:24;;;;;;;15.07;8.30;;;;;;;;;;5067445;28;20040;-58
2022/03/07 03:14:50;;;;;;;13.63;7.70;;;;;;;;;;5071442;28;20044;-57
2022/03/07 03:17:16;;;;;;;11.65;9.10;;;;;;;;;;5071934;28;20041;-57
2022/03/07 03:19:42;;;;;;;11.35;7.57;;;;;;;;;;5068888;28;20075;-58
2022/03/07 03:22:08;;;;;;;12.48;7.95;;;;;;;;;;5069722;28;20068;-58
2022/03/07 03:24:34;;;;;;;12.18;8.00;;;;;;;;;;5071196;28;20033;-58
2022/03/07 03:27:00;;;;;;;12.55;8.57;;;;;;;;;;5069856;28;20529;-57
2022/03/07 03:29:26;;;;;;;12.30;8.35;;;;;;;;;;5068643;28;20051;-57
2022/03/07 03:31:52;;;;;;;9.98;7.63;;;;;;;;;;5070327;28;20036;-58
2022/03/07 03:34:17;;;;;;;9.77;7.60;;;;;;;;;;5063307;28;20052;-57
2022/03/07 03:36:44;;;;;;;11.13;7.80;;;;;;;;;;5045296;28;20040;-57
2022/03/07 03:39:09;;;;;;;12.30;7.50;;;;;;;;;;5046381;28;22491;-57
2022/03/07 03:41:36;;;;;;;12.13;8.00;;;;;;;;;;5062167;28;20067;-57
2022/03/07 03:44:02;;;;;;;11.63;8.13;;;;;;;;;;5070419;28;20051;-58
2022/03/07 03:46:28;;;;;;;12.82;8.02;;;;;;;;;;5068459;28;20426;-58
2022/03/07 03:48:54;;;;;;;13.27;8.10;;;;;;;;;;5070068;28;20048;-58
2022/03/07 03:51:20;;;;;;;11.43;8.63;;;;;;;;;;5068396;28;20107;-57
2022/03/07 03:53:46;;;;;;;13.40;7.65;;;;;;;;;;5070270;28;20032;-58
2022/03/07 03:56:12;;;;;;;11.33;8.40;;;;;;;;;;5069928;28;20075;-58
2022/03/07 03:58:38;;;;;;;12.47;7.83;;;;;;;;;;5068268;28;20033;-57
2022/03/07 04:01:04;;;;;;;11.55;7.63;;;;;;;;;;5069061;28;20068;-58
2022/03/07 04:03:30;;;;;;;14.10;8.77;;;;;;;;;;5067184;28;20059;-57
2022/03/07 04:05:56;;;;;;;12.63;8.37;;;;;;;;;;5062278;28;20049;-57
2022/03/07 04:08:22;;;;;;;11.93;8.37;;;;;;;;;;5069316;28;20152;-58
2022/03/07 04:10:48;;;;;;;13.43;8.77;;;;;;;;;;5068712;28;20045;-58
2022/03/07 04:13:14;;;;;;;14.70;9.20;;;;;;;;;;5068416;28;20055;-58
2022/03/07 04:15:40;;;;;;;15.10;8.87;;;;;;;;;;5065524;28;20486;-57
2022/03/07 04:18:07;;;;;;;13.87;8.53;;;;;;;;;;5069511;28;20036;-58
2022/03/07 04:20:33;;;;;;;14.70;9.30;;;;;;;;;;5069839;28;20044;-57
2022/03/07 04:23:01;;;;;;;14.80;9.02;;;;;;;;;;5077502;28;20100;-58
2022/03/07 04:25:27;;;;;;;14.35;9.07;;;;;;;;;;5070752;28;20094;-58
2022/03/07 04:27:53;;;;;;;12.27;8.70;;;;;;;;;;5068824;28;20448;-58
2022/03/07 04:30:19;;;;;;;12.37;8.83;;;;;;;;;;5068357;28;20128;-58
2022/03/07 04:32:45;;;;;;;13.43;9.10;;;;;;;;;;5069819;28;20362;-58
2022/03/07 04:35:12;;;;;;;11.70;8.87;;;;;;;;;;5069468;28;20036;-57
2022/03/07 04:37:41;;;;;;;9.00;7.90;;;;;;;;;;5069754;28;20379;-58
2022/03/07 04:40:08;;;;;;;11.27;8.70;;;;;;;;;;5068719;28;20094;-57
2022/03/07 04:42:34;;;;;;;12.87;8.00;;;;;;;;;;5068319;28;20039;-57
2022/03/07 04:45:00;;;;;;;13.03;8.43;;;;;;;;;;5070337;28;20045;-58
2022/03/07 04:47:26;;;;;;;12.60;8.30;;;;;;;;;;5065795;28;20047;-58
2022/03/07 04:49:52;;;;;;;13.80;9.60;;;;;;;;;;5070429;28;20044;-58
2022/03/07 04:52:18;;;;;;;14.73;9.15;;;;;;;;;;5070223;28;20040;-58
2022/03/07 04:54:44;;;;;;;13.17;8.67;;;;;;;;;;5068948;28;20447;-58
2022/03/07 04:57:10;;;;;;;16.00;9.17;;;;;;;;;;5070929;28;20048;-58
2022/03/07 04:59:36;;;;;;;12.70;9.17;;;;;;;;;;5067414;28;20041;-58
2022/03/07 05:02:02;;;;;;;15.07;9.70;;;;;;;;;;5067310;28;20119;-57
2022/03/07 05:04:28;;;;;;;12.40;8.45;;;;;;;;;;5071134;28;20047;-57
2022/03/07 05:06:54;;;;;;;14.00;9.33;;;;;;;;;;5071155;28;20040;-58
2022/03/07 05:09:20;;;;;;;11.90;8.87;;;;;;;;;;5073078;28;20482;-58
2022/03/07 05:11:46;;;;;;;15.73;9.67;;;;;;;;;;5069961;28;20028;-58
2022/03/07 05:14:13;;;;;;;15.15;9.10;;;;;;;;;;5072789;28;20110;-58
2022/03/07 05:16:39;;;;;;;18.20;9.60;;;;;;;;;;5072597;28;20071;-57
2022/03/07 05:19:05;;;;;;;13.40;9.37;;;;;;;;;;5070013;28;20064;-58
2022/03/07 05:21:31;;;;;;;11.88;8.98;;;;;;;;;;5074053;28;20029;-58
2022/03/07 05:23:57;;;;;;;13.27;9.30;;;;;;;;;;5072806;28;20036;-58
2022/03/07 05:26:23;;;;;;;14.60;9.30;;;;;;;;;;5071757;28;20049;-58
2022/03/07 05:28:49;;;;;;;14.87;9.87;;;;;;;;;;5073009;28;20082;-57
2022/03/07 05:31:15;;;;;;;14.53;9.30;;;;;;;;;;5069895;28;20032;-58
2022/03/07 05:33:41;;;;;;;13.68;9.27;;;;;;;;;;5077887;28;20085;-58
2022/03/07 05:36:07;;;;;;;14.53;9.43;;;;;;;;;;5073808;28;20048;-58
2022/03/07 05:38:34;;;;;;;14.70;10.07;;;;;;;;;;5071510;28;20044;-57
2022/03/07 05:41:00;;;;;;;13.63;9.70;;;;;;;;;;5073065;28;20078;-58
2022/03/07 05:43:26;;;;;;;17.13;11.07;;;;;;;;;;5073186;28;20041;-57
2022/03/07 05:45:52;;;;;;;13.70;9.60;;;;;;;;;;5069288;28;20044;-58
2022/03/07 05:48:18;;;;;;;15.00;9.07;;;;;;;;;;5070889;28;20127;-58
2022/03/07 05:50:44;;;;;;;16.45;10.00;;;;;;;;;;5072248;28;20107;-57
2022/03/07 05:53:10;;;;;;;14.20;10.20;;;;;;;;;;5073660;28;20036;-58
2022/03/07 05:55:36;;;;;;;15.10;10.30;;;;;;;;;;5071345;28;20537;-58
2022/03/07 05:58:02;;;;;;;14.38;9.77;;;;;;;;;;5072512;28;20491;-57
2022/03/07 06:00:29;;;;;;;15.40;10.00;;;;;;;;;;5067256;28;20067;-57
2022/03/07 06:02:55;;;;;;;15.07;10.67;;;;;;;;;;5070379;28;20448;-57
2022/03/07 06:05:22;;;;;;;15.17;9.57;;;;;;;;;;5072903;28;20048;-58
2022/03/07 06:07:48;;;;;;;14.82;9.93;;;;;;;;;;5072176;28;20040;-58
2022/03/07 06:10:14;;;;;;;14.23;10.10;;;;;;;;;;5069062;28;20037;-58
2022/03/07 06:12:40;;;;;;;16.33;10.10;;;;;;;;;;5072927;28;20032;-57
2022/03/07 06:15:06;;;;;;;14.40;9.27;;;;;;;;;;5065585;28;20127;-58
2022/03/07 06:17:33;;;;;;;13.37;8.93;;;;;;;;;;5068634;28;20040;-57
2022/03/07 06:20:00;;;;;;;14.00;10.23;;;;;;;;;;5067126;28;20051;-57
2022/03/07 06:22:26;;;;;;;16.70;10.00;;;;;;;;;;5072300;28;20478;-57
2022/03/07 06:24:52;;;;;;;12.30;8.90;;;;;;;;;;5071104;28;20041;-57
2022/03/07 06:27:18;;;;;;;16.23;9.43;;;;;;;;;;5072069;28;20047;-57
2022/03/07 06:29:44;;;;;;;13.13;9.00;;;;;;;;;;5071023;28;20033;-58
2022/03/07 06:32:10;;;;;;;14.00;9.13;;;;;;;;;;5068622;28;20398;-57
2022/03/07 06:34:36;;;;;;;18.23;9.30;;;;;;;;;;5071048;28;20101;-57
2022/03/07 06:37:02;;;;;;;14.40;10.30;;;;;;;;;;5071264;28;20505;-57
2022/03/07 06:39:29;;;;;;;14.07;10.00;;;;;;;;;;5070529;28;20517;-57
2022/03/07 06:41:55;;;;;;;14.37;9.87;;;;;;;;;;5074375;28;20409;-57
2022/03/07 06:44:21;;;;;;;13.97;10.00;;;;;;;;;;5070606;28;20040;-57
2022/03/07 06:46:47;;;;;;;13.98;9.27;;;;;;;;;;5070414;28;20061;-57
2022/03/07 06:49:13;;;;;;;16.37;10.27;;;;;;;;;;5070356;28;20041;-57
2022/03/07 06:51:39;;;;;;;16.60;11.30;;;;;;;;;;5069486;28;20107;-57
2022/03/07 06:54:05;;;;;;;13.50;9.43;;;;;;;;;;5070521;28;20146;-57
2022/03/07 06:56:31;;;;;;;14.20;10.50;;;;;;;;;;5071132;28;20055;-57
2022/03/07 06:58:59;;;;;;;14.43;9.73;;;;;;;;;;5070020;28;20410;-57
2022/03/07 07:01:25;;;;;;;16.53;10.67;;;;;;;;;;5070113;28;20044;-57
2022/03/07 07:03:51;;;;;;;14.67;10.20;;;;;;;;;;5070820;28;20039;-57
2022/03/07 07:06:17;;;;;;;14.93;9.63;;;;;;;;;;5070222;28;20033;-58
2022/03/07 07:08:43;;;;;;;14.03;9.70;;;;;;;;;;5070752;28;20040;-58
2022/03/07 07:11:09;;;;;;;16.30;10.73;;;;;;;;;;5070604;28;20110;-58
2022/03/07 07:13:35;;;;;;;15.30;9.83;;;;;;;;;;5070783;28;20494;-58
2022/03/07 07:16:01;;;;;;;15.10;9.80;;;;;;;;;;5071750;28;20119;-58
2022/03/07 07:18:27;;;;;;;15.00;10.97;;;;;;;;;;5069616;28;20097;-58
2022/03/07 07:20:53;;;;;;;14.97;10.83;;;;;;;;;;5070214;28;20040;-58
2022/03/07 07:23:21;;;;;;;15.87;10.77;;;;;;;;;;5070323;28;20036;-58
2022/03/07 07:25:47;;;;;;;19.27;11.10;;;;;;;;;;5069819;28;20036;-58
2022/03/07 07:28:13;;;;;;;18.90;11.87;;;;;;;;;;5070139;28;20125;-58
2022/03/07 07:30:39;;;;;;;19.57;11.87;;;;;;;;;;5070823;28;20117;-58
2022/03/07 07:33:05;;;;;;;22.90;12.53;;;;;;;;;;5070528;28;20495;-58
2022/03/07 07:35:33;;;;;;;19.35;11.52;;;;;;;;;;5069578;28;20036;-58
2022/03/07 07:38:00;;;;;;;18.27;11.87;;;;;;;;;;5070398;28;20063;-58
2022/03/07 07:40:26;;;;;;;17.23;11.97;;;;;;;;;;5070489;28;20072;-58
2022/03/07 07:42:52;;;;;;;18.80;11.83;;;;;;;;;;5070931;28;20471;-58
2022/03/07 07:45:18;;;;;;;18.53;12.63;;;;;;;;;;5068690;28;20058;-57
2022/03/07 07:47:43;;;;;;;21.23;13.32;;;;;;;;;;5068639;28;20560;-58
2022/03/07 07:50:10;;;;;;;19.67;13.17;;;;;;;;;;5069907;28;20033;-58
2022/03/07 07:52:36;;;;;;;22.58;13.30;;;;;;;;;;5073464;28;20036;-58
2022/03/07 07:55:04;;;;;;;21.70;13.00;;;;;;;;;;5068574;28;20044;-58
2022/03/07 07:57:31;;;;;;;21.53;11.77;;;;;;;;;;5063597;28;20040;-58
2022/03/07 07:59:57;;;;;;;21.70;12.10;;;;;;;;;;5070110;28;20036;-58
2022/03/07 08:02:23;;;;;;;17.23;11.53;;;;;;;;;;5069105;28;20040;-58
2022/03/07 08:04:51;;;;;;;24.20;12.50;;;;;;;;;;5069122;28;20410;-58
2022/03/07 08:07:18;;;;;;;18.98;11.25;;;;;;;;;;5061311;28;20053;-58
2022/03/07 08:09:44;;;;;;;19.60;11.85;;;;;;;;;;5070335;28;20040;-58
2022/03/07 08:12:10;;;;;;;16.85;11.25;;;;;;;;;;5069784;28;20040;-58
2022/03/07 08:14:36;;;;;;;18.75;10.95;;;;;;;;;;5070028;28;20048;-58
2022/03/07 08:17:03;;;;;;;18.95;12.38;;;;;;;;;;5068206;28;20048;-58
2022/03/07 08:19:29;;;;;;;17.73;11.02;;;;;;;;;;5068440;28;20045;-58
2022/03/07 08:21:55;;;;;;;20.88;11.23;;;;;;;;;;5069835;28;20040;-58
2022/03/07 08:24:23;;;;;;;20.20;11.35;;;;;;;;;;5067235;28;20036;-58
2022/03/07 08:26:49;;;;;;;18.02;11.77;;;;;;;;;;5068279;28;20051;-58
2022/03/07 08:29:15;;;;;;;16.90;10.48;;;;;;;;;;5066497;28;20028;-58
2022/03/07 08:31:41;;;;;;;16.60;10.85;;;;;;;;;;5067950;28;20059;-58
2022/03/07 08:34:07;;;;;;;17.77;11.00;;;;;;;;;;5068127;28;20045;-58
2022/03/07 08:36:33;;;;;;;18.00;11.57;;;;;;;;;;5067786;28;20093;-58
2022/03/07 08:38:59;;;;;;;19.92;11.27;;;;;;;;;;5071379;28;20086;-58
2022/03/07 08:41:26;;;;;;;17.80;10.63;;;;;;;;;;5072798;28;20047;-58
2022/03/07 08:43:52;;;;;;;15.77;10.15;;;;;;;;;;5071071;28;20478;-58
2022/03/07 08:46:19;;;;;;;17.33;10.65;;;;;;;;;;5073843;28;20036;-58
2022/03/07 08:48:45;;;;;;;18.13;10.90;;;;;;;;;;5071679;28;20056;-57
2022/03/07 08:51:11;;;;;;;15.32;9.50;;;;;;;;;;5071753;28;20051;-58
2022/03/07 08:53:37;;;;;;;15.40;10.20;;;;;;;;;;5073290;28;20032;-58
2022/03/07 08:56:03;;;;;;;14.45;9.02;;;;;;;;;;5073654;28;20051;-58
2022/03/07 08:58:29;;;;;;;12.27;8.23;;;;;;;;;;5073587;28;20060;-58
2022/03/07 09:00:55;;;;;;;15.95;8.30;;;;;;;;;;5079069;28;20504;-58
2022/03/07 09:03:21;;;;;;;14.90;8.35;;;;;;;;;;5074132;28;20055;-58
2022/03/07 09:05:47;;;;;;;10.25;7.07;;;;;;;;;;5074012;28;20486;-58
2022/03/07 09:08:13;;;;;;;12.93;7.18;;;;;;;;;;5072383;28;20032;-58
2022/03/07 09:10:39;;;;;;;8.77;5.85;;;;;;;;;;5070803;28;20451;-58
2022/03/07 09:13:05;;;;;;;11.60;6.35;;;;;;;;;;5072348;28;20102;-58
2022/03/07 09:15:31;;;;;;;9.68;7.43;;;;;;;;;;5069489;28;20052;-58
2022/03/07 09:17:57;;;;;;;9.95;6.68;;;;;;;;;;5071986;28;20469;-58
2022/03/07 09:20:24;;;;;;;10.73;7.57;;;;;;;;;;5070052;28;20135;-59
2022/03/07 09:22:50;;;;;;;12.23;7.38;;;;;;;;;;5072563;28;20119;-58
2022/03/07 09:25:16;;;;;;;12.43;7.68;;;;;;;;;;5070519;28;20147;-58
2022/03/07 09:27:44;;;;;;;10.68;6.32;;;;;;;;;;5074606;28;20033;-58
2022/03/07 09:30:10;;;;;;;13.48;8.00;;;;;;;;;;5074191;28;20074;-58
2022/03/07 09:32:36;;;;;;;14.52;7.90;;;;;;;;;;5073896;28;20045;-58
2022/03/07 09:35:03;;;;;;;14.02;7.82;;;;;;;;;;5072646;28;20127;-58
2022/03/07 09:37:29;;;;;;;14.52;8.13;;;;;;;;;;5073594;28;20085;-58
2022/03/07 09:39:55;;;;;;;18.17;8.50;;;;;;;;;;5074479;28;20040;-58
2022/03/07 09:42:22;;;;;;;12.93;8.02;;;;;;;;;;5074130;28;20116;-58
2022/03/07 09:44:48;;;;;;;12.93;7.93;;;;;;;;;;5073902;28;20096;-58
2022/03/07 09:47:15;;;;;;;14.30;8.00;;;;;;;;;;5074496;28;20079;-58
2022/03/07 09:49:41;;;;;;;12.55;7.68;;;;;;;;;;5072842;28;20406;-58
2022/03/07 09:52:07;;;;;;;10.40;7.20;;;;;;;;;;5072985;28;20032;-58
2022/03/07 09:54:32;;;;;;;7.15;4.05;;;;;;;;;;5074049;28;20071;-58
2022/03/07 09:56:59;;;;;;;9.43;5.18;;;;;;;;;;5072616;28;20105;-58
2022/03/07 09:59:25;;;;;;;9.98;4.07;;;;;;;;;;5073751;28;20133;-58
2022/03/07 10:02:00;;;;;;;10.40;4.53;;;;;;;;;;5073558;28;20036;-58
2022/03/07 10:04:26;;;;;;;7.38;4.20;;;;;;;;;;5073947;28;20098;-58
2022/03/07 10:06:52;;;;;;;10.13;5.00;;;;;;;;;;5073517;28;20051;-58
2022/03/07 10:09:22;;;;;;;12.68;5.13;;;;;;;;;;5076760;28;20040;-59
2022/03/07 10:11:52;;;;;;;9.32;4.90;;;;;;;;;;5088916;28;20032;-58
2022/03/07 10:14:18;;;;;;;8.32;5.60;;;;;;;;;;5093861;28;20044;-58
2022/03/07 10:16:44;;;;;;;10.20;5.63;;;;;;;;;;5077413;28;20486;-58
2022/03/07 10:19:15;;;;;;;10.85;6.38;;;;;;;;;;5073698;28;20405;-58
2022/03/07 10:21:46;;;;;;;8.75;5.55;;;;;;;;;;5072348;28;20037;-58
2022/03/07 10:24:12;;;;;;;10.80;5.90;;;;;;;;;;5072334;28;20075;-59
2022/03/07 10:26:38;;;;;;;11.90;6.10;;;;;;;;;;5073154;28;20536;-58
2022/03/07 10:29:05;;;;;;;11.40;5.18;;;;;;;;;;5073758;28;20068;-58
2022/03/07 10:31:31;;;;;;;13.73;5.53;;;;;;;;;;5072068;28;20406;-59
2022/03/07 10:34:08;;;;;;;11.80;6.00;;;;;;;;;;5073045;28;20033;-58
2022/03/07 10:36:35;;;;;;;9.07;4.85;;;;;;;;;;5072730;28;20040;-58
2022/03/07 10:39:04;;;;;;;8.32;3.78;;;;;;;;;;5072556;28;20032;-59
2022/03/07 10:41:37;;;;;;;7.22;4.07;;;;;;;;;;5073304;28;20044;-58
2022/03/07 10:44:08;;;;;;;9.65;4.50;;;;;;;;;;5073001;28;20044;-58
2022/03/07 10:46:34;;;;;;;10.13;4.25;;;;;;;;;;5073321;28;20097;-58
2022/03/07 10:49:00;;;;;;;8.88;4.32;;;;;;;;;;5072959;28;20534;-59
2022/03/07 10:51:27;;;;;;;7.13;4.43;;;;;;;;;;5072788;28;20512;-59
2022/03/07 10:53:54;;;;;;;12.05;4.47;;;;;;;;;;5072208;28;20041;-59
2022/03/07 10:56:21;;;;;;;6.55;4.32;;;;;;;;;;5072818;28;20097;-58
2022/03/07 10:58:51;;;;;;;6.28;3.95;;;;;;;;;;5072820;28;20068;-58
2022/03/07 11:01:28;;;;;;;7.35;4.32;;;;;;;;;;5072929;28;20044;-58
2022/03/07 11:03:54;;;;;;;5.28;4.18;;;;;;;;;;5072508;28;20498;-58
2022/03/07 11:06:22;;;;;;;6.47;3.90;;;;;;;;;;5071606;28;20421;-59
2022/03/07 11:08:47;;;;;;;6.95;4.60;;;;;;;;;;5058917;28;20045;-58
2022/03/07 11:11:13;;;;;;;8.55;4.75;;;;;;;;;;5052878;28;20445;-58
2022/03/07 11:13:41;;;;;;;9.10;4.38;;;;;;;;;;5077945;22;20051;-58
2022/03/07 11:16:07;;;;;;;10.07;5.03;;;;;;;;;;5071331;28;20489;-59
2022/03/07 11:18:34;;;;;;;8.48;4.72;;;;;;;;;;5072257;28;20040;-58
2022/03/07 11:21:04;;;;;;;7.43;3.92;;;;;;;;;;5071850;28;20045;-59
2022/03/07 11:23:30;;;;;;;4.40;3.28;;;;;;;;;;5072137;28;20064;-58
2022/03/07 11:25:58;;;;;;;7.45;3.83;;;;;;;;;;5054281;28;20110;-59
2022/03/07 11:28:28;;;;;;;8.02;4.60;;;;;;;;;;5072084;28;20486;-58
2022/03/07 11:30:54;;;;;;;7.70;4.27;;;;;;;;;;5072573;28;20047;-58
2022/03/07 11:33:34;;;;;;;9.43;4.65;;;;;;;;;;5072267;28;20040;-58
2022/03/07 11:36:01;;;;;;;5.82;3.65;;;;;;;;;;5072104;28;20426;-58
2022/03/07 11:38:31;;;;;;;6.53;4.07;;;;;;;;;;5071758;28;20044;-58
2022/03/07 11:41:00;;;;;;;8.05;4.25;;;;;;;;;;5072161;28;20065;-58
2022/03/07 11:43:26;;;;;;;5.45;4.25;;;;;;;;;;5071691;28;20102;-58
2022/03/07 11:45:53;;;;;;;10.50;4.63;;;;;;;;;;5071993;28;20072;-58
2022/03/07 11:48:19;;;;;;;9.32;4.75;;;;;;;;;;5071118;28;20048;-58
2022/03/07 11:50:45;;;;;;;7.40;5.20;;;;;;;;;;5072014;28;20048;-58
2022/03/07 11:53:14;;;;;;;7.15;4.57;;;;;;;;;;5071575;28;20045;-58
2022/03/07 11:55:48;;;;;;;8.65;4.50;;;;;;;;;;5071682;28;20036;-58
2022/03/07 11:58:15;;;;;;;5.22;4.03;;;;;;;;;;5071298;28;20524;-58
2022/03/07 12:00:43;;;;;;;9.27;4.57;;;;;;;;;;5072140;28;20044;-58
2022/03/07 12:03:15;;;;;;;6.65;4.63;;;;;;;;;;5071772;28;20044;-58
2022/03/07 12:05:42;;;;;;;7.15;4.47;;;;;;;;;;5071246;28;20123;-58
2022/03/07 12:08:18;;;;;;;7.85;4.07;;;;;;;;;;5071279;28;20120;-58
2022/03/07 12:10:55;;;;;;;6.63;3.45;;;;;;;;;;5071785;28;20040;-58
2022/03/07 12:13:21;;;;;;;5.40;3.80;;;;;;;;;;5070837;28;20549;-59
2022/03/07 12:15:53;;;;;;;4.28;3.47;;;;;;;;;;5071331;28;20037;-59
2022/03/07 12:18:19;;;;;;;5.75;3.72;;;;;;;;;;5071264;28;20471;-59
2022/03/07 12:21:03;;;;;;;5.55;3.10;;;;;;;;;;5071351;28;20123;-58
2022/03/07 12:23:34;;;;;;;4.85;3.58;;;;;;;;;;5070834;28;20044;-59
2022/03/07 12:26:01;;;;;;;5.95;3.28;;;;;;;;;;5071354;28;20040;-59
2022/03/07 12:28:28;;;;;;;8.48;3.45;;;;;;;;;;5071384;28;20028;-59
2022/03/07 12:30:55;;;;;;;4.97;3.67;;;;;;;;;;5071519;28;20041;-58
2022/03/07 12:33:21;;;;;;;6.68;3.40;;;;;;;;;;5070970;28;20040;-59
2022/03/07 12:35:47;;;;;;;5.55;3.65;;;;;;;;;;5071080;28;20039;-59
2022/03/07 12:38:13;;;;;;;6.65;3.83;;;;;;;;;;5071196;28;20087;-59
2022/03/07 12:40:39;;;;;;;5.20;4.03;;;;;;;;;;5071042;28;20106;-58
2022/03/07 12:43:05;;;;;;;6.03;3.95;;;;;;;;;;5071182;28;20044;-58
2022/03/07 12:45:33;;;;;;;7.68;4.30;;;;;;;;;;5071024;28;20094;-59
2022/03/07 12:48:01;;;;;;;6.20;3.97;;;;;;;;;;5071030;28;20040;-58
2022/03/07 12:50:28;;;;;;;5.03;3.72;;;;;;;;;;5071536;28;20083;-59
2022/03/07 12:52:55;;;;;;;5.25;3.40;;;;;;;;;;5070955;28;20170;-58
2022/03/07 12:55:21;;;;;;;5.18;3.55;;;;;;;;;;5071244;28;20044;-59
2022/03/07 12:57:48;;;;;;;7.53;4.07;;;;;;;;;;5070898;28;20055;-59
2022/03/07 13:00:16;;;;;;;6.15;3.65;;;;;;;;;;5071242;28;20044;-59
2022/03/07 13:02:43;;;;;;;6.70;3.88;;;;;;;;;;5071289;28;20040;-59
2022/03/07 13:05:11;;;;;;;7.70;4.20;;;;;;;;;;5071370;28;20056;-58
2022/03/07 13:07:37;;;;;;;4.75;3.53;;;;;;;;;;5070908;28;20063;-59
2022/03/07 13:10:23;;;;;;;6.45;4.00;;;;;;;;;;5070919;28;20532;-59
2022/03/07 13:12:49;;;;;;;4.68;3.50;;;;;;;;;;5070040;28;20041;-58
2022/03/07 13:15:15;;;;;;;4.93;3.53;;;;;;;;;;5071123;28;20540;-59
2022/03/07 13:17:42;;;;;;;5.63;4.00;;;;;;;;;;5071141;28;20137;-58
2022/03/07 13:20:10;;;;;;;5.93;4.15;;;;;;;;;;5070970;28;20044;-58
2022/03/07 13:22:37;;;;;;;5.63;4.13;;;;;;;;;;5070408;28;20048;-58
2022/03/07 13:25:04;;;;;;;6.78;3.85;;;;;;;;;;5071090;28;20041;-58
2022/03/07 13:27:31;;;;;;;5.82;3.92;;;;;;;;;;5056449;28;20052;-58
2022/03/07 13:30:05;;;;;;;7.53;4.28;;;;;;;;;;5074438;28;20040;-58
2022/03/07 13:32:33;;;;;;;5.20;3.50;;;;;;;;;;5074338;28;20033;-58
2022/03/07 13:34:59;;;;;;;6.20;3.35;;;;;;;;;;5074128;28;20174;-58
2022/03/07 13:37:27;;;;;;;5.93;3.78;;;;;;;;;;5073863;28;20045;-59
2022/03/07 13:40:10;;;;;;;5.28;3.42;;;;;;;;;;5074157;28;20549;-59
2022/03/07 13:42:39;;;;;;;5.55;3.20;;;;;;;;;;5074447;28;20545;-58
2022/03/07 13:45:06;;;;;;;6.00;3.30;;;;;;;;;;5074285;28;20048;-58
2022/03/07 13:47:33;;;;;;;4.85;2.85;;;;;;;;;;5073988;28;20036;-59
2022/03/07 13:50:05;;;;;;;3.90;2.97;;;;;;;;;;5074124;28;20490;-58
2022/03/07 13:52:33;;;;;;;4.13;2.88;;;;;;;;;;5054109;28;20062;-58
2022/03/07 13:55:01;;;;;;;5.05;2.80;;;;;;;;;;5053940;28;20087;-58
2022/03/07 13:57:31;;;;;;;4.35;2.70;;;;;;;;;;5054124;28;20041;-58
2022/03/07 13:59:58;;;;;;;5.18;3.00;;;;;;;;;;5059334;28;20040;-58
2022/03/07 14:02:24;;;;;;;4.28;3.03;;;;;;;;;;5073634;28;20045;-59
2022/03/07 14:04:53;;;;;;;5.55;3.22;;;;;;;;;;5073135;28;20080;-58
2022/03/07 14:07:23;;;;;;;7.57;3.38;;;;;;;;;;5074199;28;20405;-58
2022/03/07 14:09:53;;;;;;;5.57;3.50;;;;;;;;;;5073844;28;20048;-58
2022/03/07 14:12:29;;;;;;;5.30;2.83;;;;;;;;;;5073524;28;20044;-58
2022/03/07 14:14:56;;;;;;;6.30;3.00;;;;;;;;;;5073051;28;20044;-58
2022/03/07 14:17:22;;;;;;;4.70;3.08;;;;;;;;;;5073547;28;20556;-58
2022/03/07 14:19:49;;;;;;;4.38;3.10;;;;;;;;;;5073466;28;20567;-58
2022/03/07 14:22:19;;;;;;;4.55;3.22;;;;;;;;;;5073655;28;20560;-58
2022/03/07 14:24:46;;;;;;;3.65;2.85;;;;;;;;;;5073430;28;20080;-58
2022/03/07 14:27:12;;;;;;;7.55;3.20;;;;;;;;;;5073693;28;20040;-58
2022/03/07 14:29:38;;;;;;;4.38;3.15;;;;;;;;;;5073046;28;20119;-58